Sluck, Belarus
Current Conditions -  °F | °C
As of 9:00 AM on Saturday 20 Dec 2014 (Local Time) from UMMM Reporting Station
Broken Clouds Broken Clouds  
Wind Chill:   Ceiling: 2100
Heat Index:   Visibility: 6mi
Dew Point:   Wind: 13mph
Humidity: 81%   Direction: 270°W
Pressure: 29.56"   Gusts: 20mph
Location:  53.03°N, 27.55°E
Report Text: UMMM 200700Z 27006G09MPS 9999 BKN021 04/01 Q1001 R30/290050NOSIG RMK QFE732
Loading
Personal Weather Stations






























Interactive Weather Map New forecast layout! Learn more

10-Day Weather Forecast

Advertisements
Track Severe Weather on mobile